createdAt,value
2019-05-02T00:01:37.790Z,26.77
2019-05-02T00:04:04.576Z,28.67
2019-05-02T00:06:31.653Z,32.83
2019-05-02T00:08:58.355Z,28.40
2019-05-02T00:11:27.244Z,25.33
2019-05-02T00:13:54.580Z,28.83
2019-05-02T00:16:21.276Z,25.03
2019-05-02T00:18:48.916Z,25.33
2019-05-02T00:21:16.192Z,28.50
2019-05-02T00:23:42.840Z,30.63
2019-05-02T00:26:09.756Z,26.33
2019-05-02T00:28:38.679Z,26.50
2019-05-02T00:31:07.464Z,25.20
2019-05-02T00:33:38.101Z,25.27
2019-05-02T00:36:04.889Z,29.60
2019-05-02T00:38:33.434Z,24.20
2019-05-02T00:41:03.707Z,27.80
2019-05-02T00:43:34.620Z,25.30
2019-05-02T00:45:59.791Z,22.03
2019-05-02T00:48:54.254Z,21.90
2019-05-02T00:51:22.010Z,24.10
2019-05-02T00:53:50.292Z,22.40
2019-05-02T00:56:16.951Z,22.57
2019-05-02T00:58:43.673Z,26.47
2019-05-02T01:01:29.696Z,24.87
2019-05-02T01:04:00.260Z,25.07
2019-05-02T01:06:27.058Z,23.40
2019-05-02T01:08:53.675Z,25.23
2019-05-02T01:11:20.287Z,24.70
2019-05-02T01:13:50.340Z,27.40
2019-05-02T01:16:19.174Z,27.10
2019-05-02T01:18:44.135Z,26.03
2019-05-02T01:21:10.738Z,27.10
2019-05-02T01:23:37.772Z,23.60
2019-05-02T01:26:04.732Z,26.30
2019-05-02T01:28:53.815Z,24.10
2019-05-02T01:31:24.437Z,22.37
2019-05-02T01:34:01.235Z,22.53
2019-05-02T01:36:32.639Z,23.40
2019-05-02T01:39:02.874Z,24.10
2019-05-02T01:41:29.182Z,31.37
2019-05-02T01:44:00.160Z,22.73
2019-05-02T01:46:24.788Z,26.33
2019-05-02T01:48:51.402Z,26.33
2019-05-02T01:51:18.239Z,27.33
2019-05-02T01:53:44.841Z,26.73
2019-05-02T01:56:11.685Z,25.33
2019-05-02T01:58:38.331Z,25.60
2019-05-02T02:01:05.183Z,24.33
2019-05-02T02:03:31.932Z,24.23
2019-05-02T02:06:02.833Z,32.83
2019-05-02T02:08:32.326Z,29.30
2019-05-02T02:10:58.206Z,25.03
2019-05-02T02:13:24.745Z,22.10
2019-05-02T02:15:51.417Z,23.60
2019-05-02T02:18:22.373Z,27.40
2019-05-02T02:21:10.160Z,25.97
2019-05-02T02:23:54.801Z,21.47
2019-05-02T02:26:21.535Z,29.87
2019-05-02T02:28:48.163Z,25.40
2019-05-02T02:31:18.213Z,23.83
2019-05-02T02:33:47.943Z,29.67
2019-05-02T02:36:13.399Z,21.87
2019-05-02T02:38:40.049Z,23.37
2019-05-02T02:41:13.148Z,24.83
2019-05-02T02:43:35.568Z,21.70
2019-05-02T02:46:15.572Z,20.40
2019-05-02T02:48:42.788Z,24.40
2019-05-02T02:51:09.602Z,19.33
2019-05-02T02:53:36.329Z,22.57
2019-05-02T02:56:05.130Z,22.77
2019-05-02T02:58:44.162Z,20.20
2019-05-02T03:01:00.545Z,23.63
2019-05-02T03:03:28.575Z,20.83
2019-05-02T03:05:58.704Z,21.43
2019-05-02T03:08:25.354Z,22.23
2019-05-02T03:10:52.771Z,18.53
2019-05-02T03:13:51.440Z,22.40
2019-05-02T03:16:09.519Z,21.47
2019-05-02T03:18:40.740Z,18.50
2019-05-02T03:21:04.751Z,20.03
2019-05-02T03:23:31.702Z,19.70
2019-05-02T03:25:58.526Z,20.77
2019-05-02T03:28:25.142Z,20.70
2019-05-02T03:30:52.087Z,22.53
2019-05-02T03:33:18.772Z,18.73
2019-05-02T03:35:49.048Z,24.47
2019-05-02T03:38:15.027Z,23.53
2019-05-02T03:40:41.638Z,20.97
2019-05-02T03:43:08.369Z,19.30
2019-05-02T03:45:40.187Z,21.67
2019-05-02T03:48:04.386Z,17.47
2019-05-02T03:50:32.580Z,18.63
2019-05-02T03:53:00.000Z,19.03
2019-05-02T03:55:31.442Z,20.23
2019-05-02T03:57:55.998Z,16.50
2019-05-02T04:00:24.424Z,19.37
2019-05-02T04:02:59.193Z,17.00
2019-05-02T04:05:20.081Z,18.90
2019-05-02T04:07:47.021Z,18.13
2019-05-02T04:10:21.463Z,17.27
2019-05-02T04:12:53.217Z,19.83
2019-05-02T04:15:17.645Z,20.47
2019-05-02T04:17:44.260Z,19.37
2019-05-02T04:20:12.753Z,21.90
2019-05-02T04:22:42.699Z,18.47
2019-05-02T04:25:08.836Z,18.40
2019-05-02T04:27:35.953Z,15.37
2019-05-02T04:30:11.610Z,16.87
2019-05-02T04:32:32.129Z,18.60
2019-05-02T04:34:58.770Z,18.70
2019-05-02T04:37:25.450Z,20.33
2019-05-02T04:39:53.769Z,18.10
2019-05-02T04:42:23.246Z,16.73
2019-05-02T04:45:11.649Z,16.47
2019-05-02T04:47:21.919Z,16.30
2019-05-02T04:49:49.134Z,18.80
2019-05-02T04:52:20.903Z,18.33
2019-05-02T04:54:48.562Z,17.60
2019-05-02T04:57:14.676Z,18.57
2019-05-02T04:59:41.390Z,17.67
2019-05-02T05:02:09.113Z,16.67
2019-05-02T05:04:42.374Z,19.20
2019-05-02T05:07:05.024Z,17.60
2019-05-02T05:09:31.657Z,15.80
2019-05-02T05:12:01.317Z,21.93
2019-05-02T05:14:31.499Z,20.93
2019-05-02T05:16:56.080Z,18.73
2019-05-02T05:19:28.744Z,16.77
2019-05-02T05:21:56.719Z,27.17
2019-05-02T05:24:44.469Z,14.90
2019-05-02T05:27:13.280Z,13.97
2019-05-02T05:29:39.696Z,16.97
2019-05-02T05:32:09.910Z,12.20
2019-05-02T05:34:34.840Z,14.17
2019-05-02T05:37:03.637Z,16.93
2019-05-02T05:39:30.243Z,15.03
2019-05-02T05:41:57.840Z,19.60
2019-05-02T05:44:30.619Z,17.93
2019-05-02T05:46:53.291Z,12.73
2019-05-02T05:49:21.773Z,11.60
2019-05-02T05:51:49.514Z,13.17
2019-05-02T05:54:17.823Z,16.30
2019-05-02T05:56:48.164Z,14.77
2019-05-02T05:59:17.374Z,13.80
2019-05-02T06:01:44.396Z,15.90
2019-05-02T06:04:13.859Z,12.37
2019-05-02T06:06:39.565Z,10.60
2019-05-02T06:09:07.421Z,18.70
2019-05-02T06:11:34.742Z,16.87
2019-05-02T06:14:01.435Z,15.17
2019-05-02T06:16:28.106Z,12.20
2019-05-02T06:18:54.810Z,16.50
2019-05-02T06:21:21.607Z,11.73
2019-05-02T06:23:49.882Z,12.53
2019-05-02T06:26:16.724Z,13.83
2019-05-02T06:28:43.373Z,13.03
2019-05-02T06:31:09.971Z,15.67
2019-05-02T06:33:36.605Z,18.43
2019-05-02T06:36:03.559Z,15.03
2019-05-02T06:38:30.180Z,21.90
2019-05-02T06:40:57.196Z,13.80
2019-05-02T06:43:23.829Z,16.37
2019-05-02T06:45:50.463Z,18.07
2019-05-02T06:48:17.646Z,14.80
2019-05-02T06:50:45.616Z,17.03
2019-05-02T06:53:12.605Z,25.10
2019-05-02T06:55:39.468Z,16.17
2019-05-02T06:58:08.190Z,18.70
2019-05-02T07:00:38.460Z,13.57
2019-05-02T07:03:05.017Z,22.20
2019-05-02T07:05:32.337Z,17.90
2019-05-02T07:07:59.365Z,20.70
2019-05-02T07:10:26.706Z,19.93
2019-05-02T07:13:09.450Z,20.40
2019-05-02T07:15:38.507Z,16.03
2019-05-02T07:18:12.141Z,24.03
2019-05-02T07:20:40.666Z,16.53
2019-05-02T07:23:10.548Z,17.30
2019-05-02T07:25:39.149Z,16.50
2019-05-02T07:28:09.528Z,17.17
2019-05-02T07:30:35.130Z,16.33
2019-05-02T07:33:02.968Z,17.30
2019-05-02T07:35:29.659Z,49.07
2019-05-02T07:37:56.283Z,19.60
2019-05-02T07:40:23.024Z,19.03
2019-05-02T07:42:49.693Z,18.07
2019-05-02T07:45:16.683Z,19.00
2019-05-02T07:47:43.469Z,22.87
2019-05-02T07:50:11.963Z,16.97
2019-05-02T07:52:41.046Z,17.40
2019-05-02T07:55:10.053Z,18.43
2019-05-02T07:57:36.512Z,19.60
2019-05-02T08:00:04.536Z,16.73
2019-05-02T08:02:31.245Z,18.87
2019-05-02T08:04:57.827Z,25.20
2019-05-02T08:07:27.186Z,22.67
2019-05-02T08:09:53.047Z,17.50
2019-05-02T08:12:19.787Z,19.60
2019-05-02T08:14:46.650Z,23.40
2019-05-02T08:17:17.073Z,19.20
2019-05-02T08:19:43.185Z,24.13
2019-05-02T08:22:13.501Z,27.33
2019-05-02T08:24:39.345Z,24.60
2019-05-02T08:27:15.548Z,29.20
2019-05-02T08:29:42.160Z,24.10
2019-05-02T08:32:08.845Z,23.53
2019-05-02T08:34:35.495Z,20.30
2019-05-02T08:37:03.129Z,23.67
2019-05-02T08:39:33.788Z,32.80
2019-05-02T08:41:59.740Z,27.47
2019-05-02T08:44:26.469Z,23.73
2019-05-02T08:46:53.294Z,23.50
2019-05-02T08:49:20.540Z,22.77
2019-05-02T08:51:47.139Z,27.20
2019-05-02T08:54:13.745Z,22.73
2019-05-02T08:56:40.583Z,21.83
2019-05-02T08:59:07.209Z,23.03
2019-05-02T09:01:35.199Z,30.13
2019-05-02T09:04:02.808Z,25.07
2019-05-02T09:06:29.563Z,27.63
2019-05-02T09:08:56.231Z,30.30
2019-05-02T09:11:22.984Z,30.10
2019-05-02T09:13:49.597Z,34.97
2019-05-02T09:16:16.184Z,45.47
2019-05-02T09:18:50.728Z,50.50
2019-05-02T09:21:12.548Z,42.87
2019-05-02T09:23:41.303Z,43.47
2019-05-02T09:26:08.373Z,34.70
2019-05-02T09:28:35.041Z,37.33
2019-05-02T09:31:05.519Z,40.07
2019-05-02T09:33:32.190Z,49.73
2019-05-02T09:35:58.997Z,45.03
2019-05-02T09:38:25.620Z,64.03
2019-05-02T09:40:56.089Z,38.50
2019-05-02T09:43:22.733Z,34.80
2019-05-02T09:45:49.403Z,38.10
2019-05-02T09:48:17.239Z,37.30
2019-05-02T09:50:44.560Z,32.47
2019-05-02T09:53:13.210Z,28.90
2019-05-02T09:55:42.338Z,41.90
2019-05-02T09:58:10.493Z,28.83
2019-05-02T10:00:45.729Z,28.50
2019-05-02T10:03:13.440Z,25.87
2019-05-02T10:05:40.252Z,28.47
2019-05-02T10:08:10.693Z,25.03
2019-05-02T10:10:37.137Z,28.00
2019-05-02T10:13:05.728Z,32.53
2019-05-02T10:15:32.932Z,33.23
2019-05-02T10:18:08.781Z,28.80
2019-05-02T10:20:31.852Z,27.27
2019-05-02T10:22:56.720Z,25.73
2019-05-02T10:25:23.366Z,29.23
2019-05-02T10:27:51.990Z,27.43
2019-05-02T10:30:21.715Z,26.37
2019-05-02T10:32:52.905Z,31.50
2019-05-02T10:35:18.943Z,29.30
2019-05-02T10:37:45.601Z,28.77
2019-05-02T10:40:16.039Z,29.67
2019-05-02T10:42:41.915Z,30.00
2019-05-02T10:45:13.117Z,28.23
2019-05-02T10:47:39.299Z,33.10
2019-05-02T10:50:13.619Z,27.07
2019-05-02T10:52:42.412Z,28.10
2019-05-02T10:55:10.076Z,24.57
2019-05-02T10:57:36.758Z,28.03
2019-05-02T11:00:04.703Z,28.50
2019-05-02T11:03:03.392Z,29.70
2019-05-02T11:05:31.585Z,29.80
2019-05-02T11:08:04.710Z,31.40
2019-05-02T11:10:26.909Z,33.83
2019-05-02T11:13:01.894Z,28.80
2019-05-02T11:15:46.298Z,27.00
2019-05-02T11:18:13.643Z,32.07
2019-05-02T11:20:42.054Z,30.70
2019-05-02T11:23:08.828Z,23.67
2019-05-02T11:25:35.475Z,30.77
2019-05-02T11:28:06.991Z,24.70
2019-05-02T11:30:31.999Z,28.40
2019-05-02T11:32:58.827Z,37.90
2019-05-02T11:35:25.466Z,30.20
2019-05-02T11:37:52.068Z,27.93
2019-05-02T11:40:18.746Z,27.40
2019-05-02T11:42:47.148Z,28.67
2019-05-02T11:45:13.933Z,33.73
2019-05-02T11:47:42.175Z,32.93
2019-05-02T11:50:11.413Z,49.63
2019-05-02T11:52:38.325Z,50.33
2019-05-02T11:55:05.229Z,40.27
2019-05-02T11:57:33.203Z,37.13
2019-05-02T12:00:05.084Z,33.50
2019-05-02T12:02:58.382Z,36.57
2019-05-02T12:05:31.733Z,42.80
2019-05-02T12:08:00.821Z,42.40
2019-05-02T12:10:27.926Z,29.60
2019-05-02T12:12:55.205Z,33.33
2019-05-02T12:15:21.820Z,27.20
2019-05-02T12:17:48.451Z,27.80
2019-05-02T12:20:15.336Z,33.87
2019-05-02T12:22:42.863Z,26.73
2019-05-02T12:25:09.710Z,26.20
2019-05-02T12:27:36.331Z,27.40
2019-05-02T12:30:03.536Z,24.97
2019-05-02T12:32:30.235Z,29.23
2019-05-02T12:34:56.881Z,25.97
2019-05-02T12:37:23.545Z,26.10
2019-05-02T12:39:51.719Z,29.47
2019-05-02T12:42:18.853Z,27.33
2019-05-02T12:44:45.675Z,29.73
2019-05-02T12:47:12.451Z,29.97
2019-05-02T12:49:39.210Z,29.37
2019-05-02T12:52:05.996Z,28.13
2019-05-02T12:54:32.680Z,32.03
2019-05-02T12:56:59.569Z,26.83
2019-05-02T12:59:26.689Z,28.97
2019-05-02T13:01:53.641Z,23.73
2019-05-02T13:04:20.382Z,26.10
2019-05-02T13:06:47.016Z,30.93
2019-05-02T13:09:13.697Z,28.00
2019-05-02T13:11:52.155Z,24.23
2019-05-02T13:14:22.807Z,24.80
2019-05-02T13:16:53.615Z,20.70
2019-05-02T13:19:18.885Z,24.67
2019-05-02T13:21:58.234Z,19.70
2019-05-02T13:24:37.387Z,21.60
2019-05-02T13:27:06.684Z,21.30
2019-05-02T13:29:33.600Z,20.93
2019-05-02T13:32:17.530Z,19.57
2019-05-02T13:34:55.505Z,21.40
2019-05-02T13:37:19.173Z,18.93
2019-05-02T13:40:02.688Z,19.00
2019-05-02T13:42:29.625Z,21.17
2019-05-02T13:45:16.176Z,17.30
2019-05-02T13:47:42.807Z,22.03
2019-05-02T13:50:09.814Z,25.60
2019-05-02T13:52:36.528Z,26.93
2019-05-02T13:55:05.276Z,22.97
2019-05-02T13:57:35.051Z,26.90
2019-05-02T14:00:02.311Z,25.13
2019-05-02T14:02:35.241Z,20.40
2019-05-02T14:05:02.457Z,22.20
2019-05-02T14:07:29.435Z,25.50
2019-05-02T14:10:00.353Z,22.80
2019-05-02T14:12:48.708Z,22.47
2019-05-02T14:15:17.309Z,22.63
2019-05-02T14:17:44.340Z,22.70
2019-05-02T14:20:13.721Z,22.07
2019-05-02T14:22:40.190Z,27.50
2019-05-02T14:25:07.416Z,24.30
2019-05-02T14:27:34.105Z,27.77
2019-05-02T14:30:02.435Z,24.20
2019-05-02T14:32:29.236Z,23.87
2019-05-02T14:35:09.394Z,25.47
2019-05-02T14:37:36.577Z,27.53
2019-05-02T14:40:11.660Z,29.30
2019-05-02T14:42:38.517Z,28.70
2019-05-02T14:45:19.933Z,28.80
2019-05-02T14:47:34.547Z,28.03
2019-05-02T14:50:04.995Z,27.53
2019-05-02T14:52:30.005Z,28.63
2019-05-02T14:54:57.039Z,29.43
2019-05-02T14:57:27.157Z,28.40
2019-05-02T14:59:59.119Z,32.63
2019-05-02T15:02:47.243Z,32.07
2019-05-02T15:05:09.018Z,25.47
2019-05-02T15:07:38.499Z,32.03
2019-05-02T15:10:06.724Z,27.77
2019-05-02T15:12:33.621Z,25.37
2019-05-02T15:15:02.350Z,31.73
2019-05-02T15:17:33.671Z,33.27
2019-05-02T15:19:58.414Z,29.60
2019-05-02T15:22:27.615Z,28.63
2019-05-02T15:24:56.401Z,27.70
2019-05-02T15:27:22.376Z,29.10
2019-05-02T15:29:53.953Z,33.57
2019-05-02T15:32:25.643Z,28.30
2019-05-02T15:35:12.935Z,29.30
2019-05-02T15:37:41.721Z,28.50
2019-05-02T15:40:43.070Z,29.30
2019-05-02T15:42:47.987Z,28.90
2019-05-02T15:45:14.836Z,31.43
2019-05-02T15:47:45.153Z,29.80
2019-05-02T15:50:14.707Z,33.10
2019-05-02T15:52:42.023Z,32.97
2019-05-02T15:55:09.104Z,31.60
2019-05-02T15:57:42.925Z,38.40
2019-05-02T16:00:05.700Z,31.63
2019-05-02T16:02:32.435Z,38.43
2019-05-02T16:05:02.353Z,35.43
2019-05-02T16:07:27.640Z,38.30
2019-05-02T16:09:57.246Z,38.00
2019-05-02T16:12:27.182Z,32.90
2019-05-02T16:14:52.792Z,47.33
2019-05-02T16:17:25.633Z,32.33
2019-05-02T16:19:58.737Z,33.50
2019-05-02T16:22:24.380Z,40.00
2019-05-02T16:24:53.359Z,43.50
2019-05-02T16:27:29.825Z,38.27
2019-05-02T16:29:58.342Z,37.03
2019-05-02T16:32:35.747Z,41.20
2019-05-02T16:35:07.159Z,34.80
2019-05-02T16:37:32.400Z,37.93
2019-05-02T16:39:59.129Z,39.07
2019-05-02T16:42:26.070Z,37.63
2019-05-02T16:44:54.760Z,40.43
2019-05-02T16:47:21.961Z,32.73
2019-05-02T16:49:53.146Z,43.03
2019-05-02T16:52:17.783Z,33.73
2019-05-02T16:54:45.009Z,36.13
2019-05-02T16:57:12.562Z,36.90
2019-05-02T16:59:39.270Z,37.63
2019-05-02T17:02:07.976Z,37.77
2019-05-02T17:04:35.070Z,35.77
2019-05-02T17:07:05.889Z,36.20
2019-05-02T17:09:42.400Z,35.40
2019-05-02T17:12:11.909Z,33.07
2019-05-02T17:14:37.872Z,37.50
2019-05-02T17:17:04.491Z,43.80
2019-05-02T17:19:34.771Z,39.13
2019-05-02T17:21:59.895Z,37.90
2019-05-02T17:24:26.877Z,38.77
2019-05-02T17:26:53.722Z,44.83
2019-05-02T17:29:21.354Z,51.10
2019-05-02T17:31:50.054Z,57.50
2019-05-02T17:34:23.021Z,44.30
2019-05-02T17:36:47.007Z,42.80
2019-05-02T17:39:13.699Z,48.83
2019-05-02T17:41:44.012Z,46.60
2019-05-02T17:44:12.931Z,49.17
2019-05-02T17:46:39.269Z,49.20
2019-05-02T17:49:06.404Z,51.13
2019-05-02T17:52:04.467Z,51.70
2019-05-02T17:54:26.032Z,49.70
2019-05-02T17:56:52.255Z,45.10
2019-05-02T17:59:19.421Z,48.00
2019-05-02T18:01:46.151Z,47.93
2019-05-02T18:04:16.371Z,47.27
2019-05-02T18:06:41.761Z,48.67
2019-05-02T18:09:08.641Z,50.03
2019-05-02T18:11:37.628Z,45.80
2019-05-02T18:14:10.139Z,50.13
2019-05-02T18:16:32.655Z,50.63
2019-05-02T18:18:59.305Z,51.10
2019-05-02T18:21:28.704Z,48.83
2019-05-02T18:23:57.182Z,52.50
2019-05-02T18:26:23.324Z,53.60
2019-05-02T18:28:52.524Z,53.70
2019-05-02T18:31:21.430Z,56.47
2019-05-02T18:33:48.275Z,52.47
2019-05-02T18:36:17.496Z,52.03
2019-05-02T18:38:43.437Z,63.20
2019-05-02T18:41:11.893Z,54.03
2019-05-02T18:43:41.486Z,54.27
2019-05-02T18:46:07.746Z,55.00
2019-05-02T18:48:36.593Z,51.67
2019-05-02T18:51:03.093Z,67.03
2019-05-02T18:53:29.778Z,56.73
2019-05-02T18:56:01.011Z,62.63
2019-05-02T18:58:25.143Z,67.80
2019-05-02T19:00:52.188Z,53.70
2019-05-02T19:03:19.051Z,57.70
2019-05-02T19:05:46.686Z,55.40
2019-05-02T19:08:13.732Z,58.30
2019-05-02T19:10:44.707Z,55.27
2019-05-02T19:13:09.315Z,84.87
2019-05-02T19:15:39.605Z,68.23
2019-05-02T19:18:05.204Z,75.47
2019-05-02T19:21:07.095Z,70.77
2019-05-02T19:23:34.791Z,62.30
2019-05-02T19:26:09.670Z,85.87
2019-05-02T19:28:42.913Z,72.53
2019-05-02T19:31:09.660Z,63.40
2019-05-02T19:33:37.382Z,66.07
2019-05-02T19:36:05.049Z,67.60
2019-05-02T19:38:32.338Z,50.43
2019-05-02T19:41:05.511Z,60.33
2019-05-02T19:43:28.987Z,59.80
2019-05-02T19:45:55.596Z,54.17
2019-05-02T19:48:22.668Z,55.60
2019-05-02T19:50:51.693Z,51.13
2019-05-02T19:53:19.639Z,47.87
2019-05-02T19:55:46.454Z,53.10
2019-05-02T19:58:13.349Z,54.90
2019-05-02T20:00:42.317Z,46.37
2019-05-02T20:03:08.587Z,52.27
2019-05-02T20:05:35.238Z,45.70
2019-05-02T20:08:02.564Z,43.67
2019-05-02T20:10:31.907Z,44.60
2019-05-02T20:12:58.211Z,44.37
2019-05-02T20:15:28.946Z,40.70
2019-05-02T20:18:00.573Z,42.57
2019-05-02T20:21:05.553Z,43.63
2019-05-02T20:23:35.606Z,41.80
2019-05-02T20:26:00.665Z,50.47
2019-05-02T20:28:27.517Z,53.83
2019-05-02T20:30:54.352Z,54.33
2019-05-02T20:33:22.228Z,52.43
2019-05-02T20:35:49.309Z,42.10
2019-05-02T20:38:16.216Z,50.37
2019-05-02T20:40:43.069Z,41.30
2019-05-02T20:43:11.996Z,49.90
2019-05-02T20:45:38.412Z,38.57
2019-05-02T20:48:05.209Z,34.07
2019-05-02T20:50:31.986Z,23.50
2019-05-02T20:52:58.662Z,38.13
2019-05-02T20:55:25.367Z,28.87
2019-05-02T20:57:52.739Z,36.40
2019-05-02T21:00:23.596Z,28.33
2019-05-02T21:02:51.915Z,30.20
2019-05-02T21:05:20.614Z,26.70
2019-05-02T21:08:01.880Z,26.67
2019-05-02T21:10:35.580Z,23.50
2019-05-02T21:13:02.490Z,26.70
2019-05-02T21:15:32.240Z,31.47
2019-05-02T21:17:58.790Z,28.23
2019-05-02T21:20:25.660Z,22.10
2019-05-02T21:22:52.973Z,23.87
2019-05-02T21:25:23.210Z,24.57
2019-05-02T21:27:52.230Z,32.80
2019-05-02T21:30:24.145Z,30.40
2019-05-02T21:32:52.043Z,41.37
2019-05-02T21:35:18.918Z,32.60
2019-05-02T21:37:45.600Z,30.87
2019-05-02T21:40:12.572Z,30.50
2019-05-02T21:42:39.279Z,21.17
2019-05-02T21:45:06.436Z,25.27
2019-05-02T21:47:33.519Z,23.53
2019-05-02T21:50:06.417Z,22.87
2019-05-02T21:52:46.560Z,20.93
2019-05-02T21:55:21.748Z,22.30
2019-05-02T21:57:48.559Z,32.30
2019-05-02T22:00:39.177Z,32.20
2019-05-02T22:03:06.996Z,23.37
2019-05-02T22:05:33.749Z,12.13
2019-05-02T22:08:00.492Z,21.90
2019-05-02T22:10:27.532Z,18.97
2019-05-02T22:12:54.154Z,23.47
2019-05-02T22:15:21.918Z,18.20
2019-05-02T22:17:48.736Z,29.33
2019-05-02T22:20:15.668Z,21.87
2019-05-02T22:22:42.705Z,27.43
2019-05-02T22:25:09.335Z,30.67
2019-05-02T22:27:36.033Z,19.10
2019-05-02T22:30:04.020Z,19.27
2019-05-02T22:32:32.133Z,18.37
2019-05-02T22:34:59.148Z,18.07
2019-05-02T22:37:25.977Z,12.23
2019-05-02T22:39:57.147Z,9.60
2019-05-02T22:42:23.985Z,10.30
2019-05-02T22:44:50.855Z,12.83
2019-05-02T22:47:17.608Z,10.87
2019-05-02T22:49:44.283Z,14.07
2019-05-02T22:52:12.199Z,8.47
2019-05-02T22:54:41.570Z,13.50
2019-05-02T22:57:08.548Z,16.83
2019-05-02T22:59:35.244Z,9.23
2019-05-02T23:02:02.255Z,5.70
2019-05-02T23:04:29.392Z,12.37
2019-05-02T23:06:56.470Z,5.20
2019-05-02T23:09:23.129Z,8.67
2019-05-02T23:11:51.702Z,7.07
2019-05-02T23:14:18.876Z,9.10
2019-05-02T23:16:45.734Z,8.43
2019-05-02T23:19:12.553Z,5.30
2019-05-02T23:21:39.635Z,6.83
2019-05-02T23:24:14.472Z,5.10
2019-05-02T23:26:53.495Z,6.93
2019-05-02T23:29:20.105Z,11.23
2019-05-02T23:31:46.712Z,7.97
2019-05-02T23:34:13.324Z,12.20
2019-05-02T23:36:41.624Z,7.70
2019-05-02T23:39:09.459Z,8.73
2019-05-02T23:41:36.677Z,7.17
2019-05-02T23:44:03.419Z,6.87
2019-05-02T23:46:30.097Z,9.57
2019-05-02T23:48:56.945Z,10.87
2019-05-02T23:51:23.740Z,10.33
2019-05-02T23:53:50.397Z,10.23
2019-05-02T23:56:17.051Z,6.17
2019-05-02T23:58:43.799Z,9.90
